Terminal Aerodrome Forecast
Issued by NWS

Home | Current Version | Previous Version | Text Only | Print | Product List | Glossary On
Versions: 1 2 3 4 5 6 7 8 9 10 11 12 13 14 15 16 17 18 19 20 21 22 23 24 25 26 27 28 29 30
000
FTUS43 KLSX 211934 AAD
TAFUIN
TAF AMD
KUIN 211934Z 2120/2218 35005KT P6SM SCT030
     FM220100 VRB03KT P6SM FEW250
     FM220800 21005KT 2SM BR SKC
     FM221100 21005KT 3/4SM BR FEW120
     FM221600 21008KT P6SM FEW120=

USA.gov is the U.S. government's official web portal to all federal, state and local government web resources and services.